Time;durP1;ratioP1;P1;durP2;ratioP2;P2;SDS_P1;SDS_P2;PMS_P1;PMS_P2;Temp;Humidity;BMP_temperature;BMP_pressure;BME280_temperature;BME280_humidity;BME280_pressure;Samples;Min_cycle;Max_cycle;Signal;HPM_P1;HPM_P2
2021/12/15 00:00:08;;;;;;;43.55;19.25;;;;;;;-3.16;100.00;101671.00;5072475;28;20111;-65
2021/12/15 00:02:34;;;;;;;38.72;17.48;;;;;;;-3.10;100.00;101680.53;5069155;28;20064;-65
2021/12/15 00:04:59;;;;;;;48.47;20.48;;;;;;;-3.15;100.00;101667.50;5060213;28;20418;-64
2021/12/15 00:07:25;;;;;;;40.88;19.38;;;;;;;-3.17;100.00;101671.88;5067235;28;20021;-66
2021/12/15 00:09:51;;;;;;;43.08;18.65;;;;;;;-3.21;100.00;101670.19;5070073;28;20035;-66
2021/12/15 00:12:17;;;;;;;44.60;19.00;;;;;;;-3.16;100.00;101683.25;5068635;28;20032;-66
2021/12/15 00:14:44;;;;;;;43.92;20.10;;;;;;;-3.23;100.00;101671.06;5059687;28;20051;-65
2021/12/15 00:17:10;;;;;;;42.40;19.02;;;;;;;-3.20;100.00;101682.41;5052689;28;20049;-66
2021/12/15 00:19:37;;;;;;;44.75;18.33;;;;;;;-3.29;100.00;101658.91;5071886;28;20157;-66
2021/12/15 00:22:04;;;;;;;45.40;19.75;;;;;;;-3.27;100.00;101662.38;5070702;28;20032;-65
2021/12/15 00:24:30;;;;;;;43.33;18.35;;;;;;;-3.29;100.00;101665.91;5069559;28;20031;-66
2021/12/15 00:26:56;;;;;;;43.53;18.83;;;;;;;-3.28;100.00;101672.88;5051884;28;20487;-66
2021/12/15 00:29:24;;;;;;;46.65;18.67;;;;;;;-3.13;100.00;101678.84;5068473;28;20056;-66
2021/12/15 00:31:50;;;;;;;38.63;17.38;;;;;;;-3.09;100.00;101684.94;5066863;28;20190;-66
2021/12/15 00:34:16;;;;;;;43.15;17.95;;;;;;;-3.14;100.00;101677.09;5061226;28;20144;-68
2021/12/15 00:36:45;;;;;;;39.97;17.67;;;;;;;-3.13;100.00;101688.47;5050476;28;20120;-66
2021/12/15 00:39:22;;;;;;;44.92;17.83;;;;;;;-3.24;100.00;101680.72;5051650;28;20032;-66
2021/12/15 00:41:48;;;;;;;41.78;17.33;;;;;;;-3.25;100.00;101678.09;5053067;28;20550;-65
2021/12/15 00:44:13;;;;;;;44.83;17.73;;;;;;;-3.21;100.00;101672.81;5067046;28;20102;-66
2021/12/15 00:46:40;;;;;;;43.72;17.67;;;;;;;-3.20;100.00;101689.41;5050099;28;20116;-66
2021/12/15 00:49:06;;;;;;;51.53;19.02;;;;;;;-3.23;100.00;101699.91;5051488;28;20527;-66
2021/12/15 00:51:32;;;;;;;39.75;17.55;;;;;;;-3.24;100.00;101693.84;5067166;28;20123;-66
2021/12/15 00:53:58;;;;;;;40.80;18.27;;;;;;;-3.20;100.00;101687.66;5069909;28;20028;-66
2021/12/15 00:56:24;;;;;;;51.40;22.15;;;;;;;-3.30;100.00;101690.38;5071248;28;20111;-66
2021/12/15 00:58:49;;;;;;;47.38;20.23;;;;;;;-3.39;100.00;101674.75;5071187;28;20035;-66
2021/12/15 01:01:15;;;;;;;50.15;19.10;;;;;;;-3.31;100.00;101691.28;5071268;28;20497;-65
2021/12/15 01:03:41;;;;;;;50.53;18.83;;;;;;;-3.23;100.00;101705.16;5071136;28;20104;-66
2021/12/15 01:06:11;;;;;;;41.88;17.75;;;;;;;-3.30;100.00;101685.13;5064401;28;20360;-65
2021/12/15 01:08:42;;;;;;;53.63;20.60;;;;;;;-3.30;100.00;101696.50;5055771;28;20039;-66
2021/12/15 01:11:29;;;;;;;48.95;19.75;;;;;;;-3.33;100.00;101693.91;5051992;28;20456;-66
2021/12/15 01:19:54;;;;;;;49.47;20.65;;;;;;;-3.35;100.00;101697.44;5050959;28;20126;-66
2021/12/15 01:22:19;;;;;;;56.90;22.02;;;;;;;-3.37;100.00;101694.84;5061071;28;20035;-65
2021/12/15 01:24:45;;;;;;;53.85;21.75;;;;;;;-3.38;100.00;101686.97;5056419;28;20104;-66
2021/12/15 01:27:11;;;;;;;51.60;21.05;;;;;;;-3.30;100.00;101691.25;5061955;28;20048;-67
2021/12/15 01:29:36;;;;;;;49.85;21.05;;;;;;;-3.33;100.00;101696.53;5053882;28;20086;-66
2021/12/15 01:32:03;;;;;;;52.45;21.70;;;;;;;-3.36;100.00;101695.69;5056002;28;20044;-66
2021/12/15 01:34:28;;;;;;;41.72;17.92;;;;;;;-3.32;100.00;101690.41;5049614;28;20119;-66
2021/12/15 01:36:54;;;;;;;45.33;18.55;;;;;;;-3.26;100.00;101698.22;5049498;28;20116;-66
2021/12/15 01:39:19;;;;;;;43.63;19.05;;;;;;;-3.32;100.00;101689.56;5049472;28;20021;-67
2021/12/15 01:41:45;;;;;;;42.38;18.60;;;;;;;-3.33;100.00;101687.78;5049482;28;20021;-68
2021/12/15 01:46:56;;;;;;;42.92;17.15;;;;;;;-3.29;100.00;101687.75;5061344;28;20075;-68
2021/12/15 01:49:21;;;;;;;34.83;15.70;;;;;;;-3.28;100.00;101684.25;5049227;28;20035;-65
2021/12/15 01:51:48;;;;;;;43.38;17.75;;;;;;;-3.25;100.00;101685.97;5049290;28;20029;-66
2021/12/15 01:54:14;;;;;;;44.95;17.85;;;;;;;-3.23;100.00;101681.56;5049064;28;20040;-66
2021/12/15 01:56:42;;;;;;;46.22;19.20;;;;;;;-3.29;100.00;101677.25;5049178;28;20029;-66
2021/12/15 01:59:08;;;;;;;41.80;17.45;;;;;;;-3.29;100.00;101690.38;5049128;28;20437;-66
2021/12/15 02:01:34;;;;;;;44.15;18.00;;;;;;;-3.30;100.00;101672.91;5047733;28;20483;-66
2021/12/15 02:04:00;;;;;;;42.35;17.80;;;;;;;-3.33;100.00;101678.19;5048827;28;20029;-66
2021/12/15 02:06:26;;;;;;;40.78;16.40;;;;;;;-3.29;100.00;101687.75;5047440;28;20033;-65
2021/12/15 02:08:52;;;;;;;39.72;17.25;;;;;;;-3.34;100.00;101679.06;5049237;28;20391;-66
2021/12/15 02:11:18;;;;;;;41.78;17.48;;;;;;;-3.37;100.00;101672.97;5047302;28;20033;-66
2021/12/15 02:13:44;;;;;;;38.63;16.13;;;;;;;-3.32;100.00;101681.69;5048922;28;20071;-66
2021/12/15 02:16:10;;;;;;;35.28;15.35;;;;;;;-3.39;100.00;101667.75;5048813;28;20430;-66
2021/12/15 02:18:42;;;;;;;37.05;16.88;;;;;;;-3.43;100.00;101662.53;5047381;28;20684;-66
2021/12/15 02:21:10;;;;;;;39.70;17.30;;;;;;;-3.33;100.00;101675.56;5048899;28;20477;-66
2021/12/15 02:23:42;;;;;;;38.85;16.50;;;;;;;-3.41;100.00;101666.91;5047470;28;20483;-66
2021/12/15 02:26:13;;;;;;;36.42;15.93;;;;;;;-3.35;100.00;101672.06;5049002;28;20049;-66
2021/12/15 02:28:42;;;;;;;41.42;16.05;;;;;;;-3.33;100.00;101679.91;5051043;28;20024;-66
2021/12/15 02:31:33;;;;;;;35.80;15.15;;;;;;;-3.37;100.00;101675.59;5066637;28;20490;-66
2021/12/15 02:34:09;;;;;;;35.38;15.40;;;;;;;-3.35;100.00;101679.09;5067417;28;20035;-66
2021/12/15 02:39:19;;;;;;;40.45;16.45;;;;;;;-3.31;100.00;101672.91;5068519;28;20090;-66
2021/12/15 02:41:46;;;;;;;39.65;16.52;;;;;;;-3.32;100.00;101672.03;5068618;28;20426;-67
2021/12/15 02:44:23;;;;;;;41.28;17.38;;;;;;;-3.28;100.00;101672.88;5068572;28;20036;-66
2021/12/15 02:46:50;;;;;;;38.53;17.13;;;;;;;-3.28;100.00;101675.50;5068753;28;20028;-66
2021/12/15 02:49:19;;;;;;;37.05;16.88;;;;;;;-3.26;100.00;101681.63;5054183;28;20036;-66
2021/12/15 02:51:47;;;;;;;41.80;17.10;;;;;;;-3.27;100.00;101683.38;5047704;28;20032;-66
2021/12/15 02:54:14;;;;;;;44.25;18.33;;;;;;;-3.27;100.00;101675.50;5048096;28;20052;-66
2021/12/15 02:56:42;;;;;;;42.65;17.67;;;;;;;-3.25;100.00;101672.84;5047212;28;20475;-66
2021/12/15 02:59:10;;;;;;;46.47;18.92;;;;;;;-3.23;100.00;101674.56;5047795;28;20079;-65
2021/12/15 03:04:46;;;;;;;40.40;15.95;;;;;;;-3.14;100.00;101678.84;5005319;28;20049;-65
2021/12/15 03:07:24;;;;;;;42.53;18.13;;;;;;;-3.10;100.00;101676.19;5039251;28;20049;-65
2021/12/15 03:17:51;;;;;;;38.80;17.00;;;;;;;-2.98;100.00;101680.41;5047694;28;20025;-65
2021/12/15 03:20:18;;;;;;;41.97;17.25;;;;;;;-2.96;100.00;101681.28;5047496;28;20021;-65
2021/12/15 03:22:45;;;;;;;38.47;16.15;;;;;;;-2.97;100.00;101675.16;5047557;28;20040;-65
2021/12/15 03:25:10;;;;;;;41.47;18.70;;;;;;;-2.82;100.00;101675.00;5047448;28;20041;-66
2021/12/15 03:33:44;;;;;;;40.40;15.53;;;;;;;-2.87;100.00;101662.81;5047662;28;20429;-66
2021/12/15 03:36:04;;;;;;;44.40;17.05;;;;;;;-2.71;100.00;101669.63;5044538;28;20534;-66
2021/12/15 03:38:30;;;;;;;40.50;17.50;;;;;;;-2.72;100.00;101665.22;5046177;28;20040;-66
2021/12/15 03:40:56;;;;;;;41.60;18.40;;;;;;;-2.74;100.00;101648.66;5051465;28;20029;-66
2021/12/15 03:43:23;;;;;;;42.25;14.45;;;;;;;-2.63;100.00;101659.88;5051052;28;20036;-65
2021/12/15 03:45:52;;;;;;;39.88;16.48;;;;;;;-2.61;100.00;101645.81;5051263;28;20025;-66
2021/12/15 03:48:22;;;;;;;38.15;15.38;;;;;;;-2.54;100.00;101649.25;5049950;28;20395;-66
2021/12/15 03:50:48;;;;;;;37.83;15.65;;;;;;;-2.56;100.00;101644.03;5051272;28;20070;-66
2021/12/15 03:53:14;;;;;;;37.40;16.30;;;;;;;-2.51;100.00;101657.09;5050821;28;20063;-66
2021/12/15 03:55:41;;;;;;;34.78;14.85;;;;;;;-2.41;100.00;101664.81;5050948;28;20021;-66
2021/12/15 03:58:11;;;;;;;38.42;16.25;;;;;;;-2.39;100.00;101663.03;5051165;28;20334;-66
2021/12/15 04:00:41;;;;;;;35.95;15.88;;;;;;;-2.36;100.00;101667.38;5050456;28;20250;-66
2021/12/15 04:03:16;;;;;;;39.95;15.32;;;;;;;-2.33;100.00;101659.44;5049777;28;20041;-66
2021/12/15 04:05:42;;;;;;;37.53;15.75;;;;;;;-2.32;100.00;101656.81;5050552;28;20032;-66
2021/12/15 04:08:07;;;;;;;40.97;16.92;;;;;;;-2.32;100.00;101648.91;5050347;28;20388;-66
2021/12/15 04:10:33;;;;;;;37.42;16.25;;;;;;;-2.35;100.00;101637.59;5049520;28;20419;-66
2021/12/15 04:12:58;;;;;;;39.05;15.85;;;;;;;-2.22;100.00;101646.16;5062881;28;20042;-66
2021/12/15 04:17:50;;;;;;;36.25;16.52;;;;;;;-2.14;100.00;101657.41;5051078;28;20029;-68
2021/12/15 04:20:20;;;;;;;38.40;15.88;;;;;;;-2.14;100.00;101658.28;5050980;28;20104;-69
2021/12/15 04:22:46;;;;;;;40.03;16.13;;;;;;;-2.11;100.00;101663.50;5050973;28;20315;-69
2021/12/15 04:25:18;;;;;;;38.97;16.88;;;;;;;-2.09;100.00;101652.97;5051109;28;20076;-68
2021/12/15 04:28:12;;;;;;;35.30;14.60;;;;;;;-2.01;100.00;101662.47;5050925;28;20388;-68
2021/12/15 04:30:44;;;;;;;38.53;15.30;;;;;;;-1.96;100.00;101658.03;5047976;28;20090;-69
2021/12/15 04:33:18;;;;;;;34.55;15.63;;;;;;;-2.01;100.00;101641.44;5050794;28;20035;-69
2021/12/15 04:35:43;;;;;;;35.30;15.48;;;;;;;-1.91;100.00;101655.34;5050799;28;20033;-70
2021/12/15 04:38:11;;;;;;;35.60;14.68;;;;;;;-1.79;100.00;101670.88;5063542;28;20135;-69
2021/12/15 04:40:37;;;;;;;39.72;15.75;;;;;;;-1.74;100.00;101653.28;5070723;28;20112;-69
2021/12/15 04:43:03;;;;;;;34.00;14.93;;;;;;;-1.70;100.00;101662.84;5057392;28;20115;-69
2021/12/15 04:45:30;;;;;;;35.63;15.05;;;;;;;-1.77;100.00;101634.94;5050745;28;20078;-69
2021/12/15 04:47:57;;;;;;;34.47;16.70;;;;;;;-1.63;100.00;101667.13;5050724;28;20039;-69
2021/12/15 04:50:25;;;;;;;37.20;16.02;;;;;;;-1.60;100.00;101654.78;5054277;28;20471;-69
2021/12/15 04:52:52;;;;;;;36.55;15.95;;;;;;;-1.57;100.00;101656.50;5070439;28;20032;-69
2021/12/15 04:55:18;;;;;;;37.10;15.10;;;;;;;-1.59;100.00;101650.38;5070383;28;20036;-69
2021/12/15 04:57:43;;;;;;;38.72;15.77;;;;;;;-1.58;100.00;101657.41;5070573;28;20429;-69
2021/12/15 05:00:15;;;;;;;35.22;15.77;;;;;;;-1.56;100.00;101656.47;5060318;28;20025;-69
2021/12/15 05:02:41;;;;;;;38.83;16.45;;;;;;;-1.54;100.00;101657.31;5050303;28;20028;-69
2021/12/15 05:05:09;;;;;;;34.88;14.57;;;;;;;-1.45;100.00;101651.03;5049987;28;20028;-69
2021/12/15 05:07:35;;;;;;;37.00;15.73;;;;;;;-1.49;100.00;101641.47;5053358;28;20031;-67
2021/12/15 05:10:00;;;;;;;36.42;16.75;;;;;;;-1.49;100.00;101651.97;5068861;28;20484;-67
2021/12/15 05:12:26;;;;;;;35.92;15.60;;;;;;;-1.44;100.00;101645.75;5069857;28;20082;-67
2021/12/15 05:14:52;;;;;;;38.80;16.80;;;;;;;-1.40;100.00;101651.78;5068687;28;20025;-68
2021/12/15 05:17:18;;;;;;;38.20;16.75;;;;;;;-1.40;100.00;101654.44;5069762;28;20038;-67
2021/12/15 05:19:46;;;;;;;36.45;16.55;;;;;;;-1.30;100.00;101663.88;5069682;28;20016;-68
2021/12/15 05:22:13;;;;;;;36.38;16.25;;;;;;;-1.32;100.00;101661.28;5069726;28;20365;-67
2021/12/15 05:24:39;;;;;;;34.88;17.10;;;;;;;-1.26;100.00;101671.69;5058273;28;20060;-67
2021/12/15 05:27:10;;;;;;;34.42;15.55;;;;;;;-1.23;100.00;101676.91;5048370;28;20462;-67
2021/12/15 05:29:37;;;;;;;33.88;16.15;;;;;;;-1.18;100.00;101680.34;5049929;28;20028;-67
2021/12/15 05:32:04;;;;;;;38.30;16.60;;;;;;;-1.11;100.00;101681.97;5048456;28;20036;-67
2021/12/15 05:34:31;;;;;;;37.78;16.70;;;;;;;-1.13;100.00;101682.91;5049980;28;20072;-67
2021/12/15 05:36:56;;;;;;;34.38;15.38;;;;;;;-1.07;100.00;101695.91;5048212;28;20048;-66
2021/12/15 05:39:23;;;;;;;41.15;17.48;;;;;;;-1.06;100.00;101684.50;5048000;28;20526;-65
2021/12/15 05:41:49;;;;;;;37.78;15.60;;;;;;;-1.05;100.00;101691.50;5049902;28;20503;-65
2021/12/15 05:44:15;;;;;;;38.88;16.83;;;;;;;-1.04;100.00;101698.50;5049263;28;20033;-66
2021/12/15 05:46:41;;;;;;;38.83;16.30;;;;;;;-1.04;100.00;101712.53;5049535;28;20508;-65
2021/12/15 05:49:07;;;;;;;40.13;18.23;;;;;;;-0.98;100.00;101729.97;5049152;28;20037;-65
2021/12/15 05:51:34;;;;;;;34.65;16.08;;;;;;;-0.96;100.00;101721.19;5049422;28;20040;-66
2021/12/15 05:54:00;;;;;;;34.05;16.15;;;;;;;-0.95;100.00;101709.75;5049349;28;20025;-65
2021/12/15 05:56:26;;;;;;;34.33;15.95;;;;;;;-0.95;100.00;101708.84;5047746;28;20029;-65
2021/12/15 05:58:51;;;;;;;36.63;16.10;;;;;;;-0.96;100.00;101723.81;5064658;28;20051;-65
2021/12/15 06:01:17;;;;;;;35.60;16.75;;;;;;;-0.92;100.00;101729.88;5069118;28;20028;-65
2021/12/15 06:03:44;;;;;;;43.40;17.33;;;;;;;-0.96;100.00;101731.72;5067267;28;20044;-66
2021/12/15 06:06:09;;;;;;;37.15;15.85;;;;;;;-0.90;100.00;101741.25;5068344;28;20119;-65
2021/12/15 06:08:37;;;;;;;35.75;16.63;;;;;;;-0.90;100.00;101746.53;5067636;28;20119;-65
2021/12/15 06:11:04;;;;;;;33.63;15.13;;;;;;;-0.81;100.00;101770.06;5069205;28;20404;-65
2021/12/15 06:13:30;;;;;;;41.05;18.08;;;;;;;-0.81;100.00;101775.31;5063882;28;20032;-66
2021/12/15 06:15:58;;;;;;;38.53;17.33;;;;;;;-0.80;100.00;101767.34;5055099;28;20021;-65
2021/12/15 06:18:24;;;;;;;36.08;16.65;;;;;;;-0.74;100.00;101766.41;5055741;28;20036;-65
2021/12/15 06:20:52;;;;;;;42.83;20.17;;;;;;;-0.72;100.00;101765.47;5055390;28;20033;-65
2021/12/15 06:23:20;;;;;;;43.55;19.05;;;;;;;-0.73;100.00;101773.41;5064145;28;20064;-65
2021/12/15 06:25:58;;;;;;;39.10;18.10;;;;;;;-0.75;100.00;101768.16;5053769;28;20510;-66
2021/12/15 06:28:28;;;;;;;43.85;18.63;;;;;;;-0.84;100.00;101756.94;5064941;28;20407;-66
2021/12/15 06:30:55;;;;;;;46.33;20.85;;;;;;;-0.78;100.00;101770.84;5052153;28;20024;-67
2021/12/15 06:33:21;;;;;;;42.72;19.42;;;;;;;-0.71;100.00;101782.16;5063782;28;20071;-66
2021/12/15 06:35:57;;;;;;;41.38;18.25;;;;;;;-0.73;100.00;101776.03;5053866;28;20028;-66
2021/12/15 06:38:34;;;;;;;50.80;20.20;;;;;;;-0.67;100.00;101789.94;5067759;28;20032;-66
2021/12/15 06:41:00;;;;;;;44.80;19.42;;;;;;;-0.68;100.00;101782.09;5066999;28;20036;-66
2021/12/15 06:43:27;;;;;;;45.75;21.20;;;;;;;-0.59;100.00;101785.41;5068617;28;20025;-65
2021/12/15 06:46:24;;;;;;;45.05;20.55;;;;;;;-0.61;100.00;101781.09;5068699;28;20028;-66
2021/12/15 06:59:41;;;;;;;52.63;23.95;;;;;;;-0.52;100.00;101794.06;5053404;28;20089;-65
2021/12/15 07:02:07;;;;;;;48.53;22.35;;;;;;;-0.51;100.00;101801.09;5067446;28;20047;-66
2021/12/15 07:04:32;;;;;;;45.95;21.70;;;;;;;-0.54;100.00;101793.22;5067361;28;20036;-65
2021/12/15 07:06:58;;;;;;;50.85;22.48;;;;;;;-0.48;100.00;101808.94;5067094;28;20025;-66
2021/12/15 07:09:24;;;;;;;48.80;21.05;;;;;;;-0.45;100.00;101803.59;5066989;28;20078;-65
2021/12/15 07:11:52;;;;;;;46.65;20.08;;;;;;;-0.43;100.00;101800.03;5068251;28;20055;-65
2021/12/15 07:14:19;;;;;;;48.85;20.95;;;;;;;-0.38;100.00;101799.94;5069411;28;20553;-65
2021/12/15 07:16:47;;;;;;;47.08;21.02;;;;;;;-0.41;100.00;101786.81;5072257;28;20028;-65
2021/12/15 07:22:07;;;;;;;53.28;25.30;;;;;;;-0.30;100.00;101787.47;5072190;28;20063;-66
2021/12/15 07:24:34;;;;;;;63.58;27.10;;;;;;;-0.30;100.00;101798.00;5070437;28;20028;-65
2021/12/15 07:27:01;;;;;;;59.47;24.65;;;;;;;-0.26;100.00;101812.84;5071705;28;20057;-66
2021/12/15 07:29:28;;;;;;;62.22;26.48;;;;;;;-0.21;100.00;101817.16;5062261;28;20021;-66
2021/12/15 07:31:54;;;;;;;52.75;23.13;;;;;;;-0.21;100.00;101808.38;5051926;28;20125;-66
2021/12/15 07:34:19;;;;;;;64.53;27.42;;;;;;;-0.18;100.00;101818.88;5051721;28;20109;-66
2021/12/15 07:36:44;;;;;;;61.25;26.08;;;;;;;-0.16;100.00;101811.81;5051839;28;20494;-66
2021/12/15 07:39:11;;;;;;;73.65;29.02;;;;;;;-0.02;100.00;101828.19;5051766;28;20547;-65
2021/12/15 07:41:48;;;;;;;70.78;29.20;;;;;;;-0.06;100.00;101822.09;5050582;28;20417;-66
2021/12/15 07:44:14;;;;;;;73.75;29.38;;;;;;;-0.01;100.00;101820.25;5051675;28;20083;-66
2021/12/15 07:46:40;;;;;;;72.43;29.02;;;;;;;0.09;100.00;101826.19;5051610;28;20032;-66
2021/12/15 07:49:05;;;;;;;77.72;31.17;;;;;;;0.11;100.00;101818.25;5051698;28;20033;-66
2021/12/15 07:51:31;;;;;;;79.38;32.38;;;;;;;0.10;100.00;101821.81;5051562;28;20028;-66
2021/12/15 07:53:56;;;;;;;77.65;33.20;;;;;;;0.14;100.00;101836.66;5049990;28;20036;-66
2021/12/15 07:56:22;;;;;;;84.32;34.40;;;;;;;0.19;100.00;101830.38;5051274;28;20036;-65
2021/12/15 07:58:48;;;;;;;87.32;34.90;;;;;;;0.24;100.00;101830.28;5051464;28;20025;-66
2021/12/15 08:01:13;;;;;;;93.88;36.03;;;;;;;0.26;100.00;101829.38;5051341;28;20380;-65
2021/12/15 08:03:40;;;;;;;88.80;33.53;;;;;;;0.28;100.00;101838.09;5051713;28;20029;-67
2021/12/15 08:06:07;;;;;;;94.50;35.00;;;;;;;0.34;100.00;101830.03;5051379;28;20060;-66
2021/12/15 08:08:33;;;;;;;88.88;34.67;;;;;;;0.46;100.00;101840.34;5050851;28;20031;-66
2021/12/15 08:10:59;;;;;;;85.70;33.67;;;;;;;0.52;100.00;101832.28;5054900;28;20507;-66
2021/12/15 08:13:27;;;;;;;85.90;34.03;;;;;;;0.61;100.00;101837.34;5071082;28;20548;-66
2021/12/15 08:15:53;;;;;;;83.25;33.92;;;;;;;0.55;100.00;101840.09;5071060;28;20024;-66
2021/12/15 08:18:19;;;;;;;90.25;34.88;;;;;;;0.45;100.00;101843.00;5070852;28;20082;-66
2021/12/15 08:20:45;;;;;;;85.95;36.45;;;;;;;0.40;100.00;101836.94;5051949;28;20049;-66
2021/12/15 08:23:10;;;;;;;93.38;35.38;;;;;;;0.40;100.00;101840.47;5051269;28;20078;-65
2021/12/15 08:25:37;;;;;;;102.13;38.50;;;;;;;0.38;100.00;101849.34;5050245;28;20045;-66
2021/12/15 08:28:05;;;;;;;85.75;35.22;;;;;;;0.46;100.00;101853.53;5050751;28;20025;-66
2021/12/15 08:30:32;;;;;;;94.53;38.20;;;;;;;0.43;100.00;101853.59;5050644;28;20029;-66
2021/12/15 08:33:00;;;;;;;97.53;36.65;;;;;;;0.42;100.00;101846.56;5050925;28;20024;-66
2021/12/15 08:35:30;;;;;;;92.28;36.42;;;;;;;0.44;100.00;101842.13;5050679;28;20039;-67
2021/12/15 08:37:56;;;;;;;99.70;38.42;;;;;;;0.64;100.00;101846.97;5050510;28;20519;-66
2021/12/15 08:40:23;;;;;;;91.45;36.58;;;;;;;0.63;100.00;101847.84;5056159;28;20028;-67
2021/12/15 08:42:49;;;;;;;101.28;38.05;;;;;;;0.58;100.00;101849.75;5070726;28;20060;-67
2021/12/15 08:45:15;;;;;;;103.65;39.75;;;;;;;0.63;100.00;101846.09;5069284;28;20067;-67
2021/12/15 08:47:41;;;;;;;108.05;38.42;;;;;;;0.66;100.00;101859.22;5070675;28;20020;-66
2021/12/15 08:50:11;;;;;;;102.57;38.03;;;;;;;0.67;100.00;101853.03;5070593;28;20048;-66
2021/12/15 08:52:37;;;;;;;109.15;39.72;;;;;;;0.76;100.00;101857.22;5058731;28;20530;-67
2021/12/15 08:55:05;;;;;;;98.63;37.67;;;;;;;0.77;100.00;101869.56;5050814;28;20032;-66
2021/12/15 08:57:31;;;;;;;105.18;39.20;;;;;;;0.72;100.00;101856.44;5050237;28;20029;-67
2021/12/15 08:59:56;;;;;;;111.35;40.45;;;;;;;0.78;100.00;101855.44;5048967;28;20082;-67
2021/12/15 09:02:22;;;;;;;96.93;41.42;;;;;;;0.84;100.00;101863.22;5050187;28;20474;-66
2021/12/15 09:04:47;;;;;;;110.75;42.55;;;;;;;0.86;100.00;101856.97;5049965;28;20043;-67
2021/12/15 09:07:16;;;;;;;102.78;42.67;;;;;;;0.96;100.00;101863.78;5050173;28;20032;-67
2021/12/15 09:09:41;;;;;;;94.40;40.33;;;;;;;1.02;100.00;101860.13;5042596;28;20029;-66
2021/12/15 09:12:08;;;;;;;101.32;38.63;;;;;;;1.02;100.00;101855.72;5049967;28;20048;-66
2021/12/15 09:14:34;;;;;;;95.18;39.15;;;;;;;1.12;100.00;101870.44;5049866;28;20029;-66
2021/12/15 09:17:03;;;;;;;106.97;42.95;;;;;;;1.20;100.00;101881.69;5049959;28;20021;-66
2021/12/15 09:19:28;;;;;;;107.80;41.28;;;;;;;1.16;100.00;101872.09;5049613;28;20033;-66
2021/12/15 09:21:55;;;;;;;101.20;42.20;;;;;;;1.21;100.00;101875.50;5049803;28;20044;-65
2021/12/15 09:24:22;;;;;;;106.10;42.88;;;;;;;1.25;100.00;101878.91;5049653;28;20046;-66
2021/12/15 09:26:48;;;;;;;109.15;43.78;;;;;;;1.21;100.00;101872.84;5064162;28;20048;-65
2021/12/15 09:29:13;;;;;;;97.13;40.05;;;;;;;1.21;100.00;101857.00;5068599;28;20442;-65
2021/12/15 09:31:39;;;;;;;104.95;41.58;;;;;;;1.33;100.00;101877.84;5069537;28;20221;-66
2021/12/15 09:34:10;;;;;;;98.50;39.10;;;;;;;1.35;100.00;101865.44;5069440;28;20032;-66
2021/12/15 09:36:37;;;;;;;111.07;43.40;;;;;;;1.34;100.00;101852.25;5068580;28;20123;-66
2021/12/15 09:39:10;;;;;;;107.05;42.35;;;;;;;1.42;100.00;101860.88;5069217;28;20387;-65
2021/12/15 09:41:36;;;;;;;109.82;41.92;;;;;;;1.44;100.00;101862.56;5069193;28;20112;-65
2021/12/15 09:44:08;;;;;;;108.70;43.75;;;;;;;1.48;100.00;101861.56;5069302;28;20550;-65
2021/12/15 09:57:25;;;;;;;93.63;40.25;;;;;;;1.69;100.00;101849.56;5064243;28;20062;-65
2021/12/15 10:02:50;;;;;;;94.38;40.38;;;;;;;1.82;100.00;101848.31;5069213;28;20043;-65
2021/12/15 10:18:58;;;;;;;108.53;46.75;;;;;;;2.10;100.00;101844.84;5068849;28;20525;-65
2021/12/15 10:21:33;;;;;;;108.20;44.65;;;;;;;2.13;100.00;101830.66;5068713;28;20056;-66
2021/12/15 10:23:59;;;;;;;107.30;45.03;;;;;;;2.16;100.00;101836.72;5067488;28;20101;-66
2021/12/15 10:26:25;;;;;;;104.88;45.58;;;;;;;2.25;100.00;101843.50;5068392;28;20052;-66
2021/12/15 10:28:52;;;;;;;105.72;46.85;;;;;;;2.23;100.00;101838.28;5052453;28;20099;-67
2021/12/15 10:31:22;;;;;;;107.25;45.70;;;;;;;2.21;100.00;101821.59;5048923;28;20033;-66
2021/12/15 10:33:54;;;;;;;102.15;45.80;;;;;;;2.44;100.00;101842.06;5048889;28;20032;-66
2021/12/15 10:36:28;;;;;;;95.78;43.22;;;;;;;2.43;100.00;101833.25;5048572;28;20028;-66
2021/12/15 10:38:56;;;;;;;94.82;41.45;;;;;;;2.50;100.00;101836.56;5048574;28;20033;-66
2021/12/15 10:41:34;;;;;;;94.40;39.70;;;;;;;2.48;100.00;101833.09;5048474;28;20032;-66
2021/12/15 10:44:01;;;;;;;88.35;40.20;;;;;;;2.53;100.00;101830.31;5048687;28;20025;-66
2021/12/15 10:46:39;;;;;;;82.82;39.10;;;;;;;2.59;100.00;101827.47;5048408;28;20033;-66
2021/12/15 10:49:13;;;;;;;91.03;42.63;;;;;;;2.57;100.00;101834.63;5050646;28;20079;-66
2021/12/15 10:51:45;;;;;;;82.90;38.83;;;;;;;2.58;100.00;101833.69;5071661;28;20369;-66
2021/12/15 10:54:24;;;;;;;91.28;40.75;;;;;;;2.61;100.00;101828.31;5072644;28;20036;-66
2021/12/15 10:56:56;;;;;;;85.55;41.20;;;;;;;2.64;100.00;101821.13;5072714;28;20032;-66
2021/12/15 10:59:25;;;;;;;78.85;38.53;;;;;;;2.64;100.00;101830.88;5072202;28;20030;-66
2021/12/15 11:01:58;;;;;;;84.50;37.88;;;;;;;2.72;100.00;101831.47;5072379;28;20544;-65
2021/12/15 11:04:35;;;;;;;74.43;36.97;;;;;;;2.74;100.00;101824.34;5072274;28;20036;-66
2021/12/15 11:07:23;;;;;;;73.43;37.88;;;;;;;2.77;100.00;101814.50;5072403;28;20352;-65
2021/12/15 11:10:14;;;;;;;69.93;36.05;;;;;;;2.82;100.00;101817.91;5072269;28;20107;-65
2021/12/15 11:12:52;;;;;;;77.22;38.00;;;;;;;2.89;100.00;101830.03;5070883;28;20034;-66
2021/12/15 11:15:26;;;;;;;76.50;36.85;;;;;;;2.86;100.00;101823.94;5072363;28;20102;-66
2021/12/15 11:17:51;;;;;;;;;;;;;;;2.91;100.00;101822.03;5072725;28;20033;-66
2021/12/15 11:20:26;;;;;;;78.32;37.38;;;;;;;2.91;100.00;101829.97;5072240;28;20392;-66
2021/12/15 11:23:08;;;;;;;77.97;38.08;;;;;;;2.93;100.00;101830.81;5072057;28;20357;-66
2021/12/15 11:25:42;;;;;;;81.13;41.72;;;;;;;2.92;100.00;101819.31;5070409;28;20395;-66
2021/12/15 11:28:24;;;;;;;76.93;40.08;;;;;;;3.01;100.00;101829.63;5071922;28;20039;-66
2021/12/15 11:31:13;;;;;;;86.05;42.88;;;;;;;3.11;100.00;101820.47;5071761;28;20123;-66
2021/12/15 11:33:45;;;;;;;80.82;41.60;;;;;;;3.09;100.00;101816.13;5071921;28;20388;-66
2021/12/15 11:36:16;;;;;;;88.05;42.92;;;;;;;3.11;100.00;101825.75;5070414;28;20217;-66
2021/12/15 11:38:41;;;;;;;80.80;41.80;;;;;;;3.16;100.00;101822.97;5071626;28;20032;-66
2021/12/15 11:41:12;;;;;;;83.25;43.05;;;;;;;3.20;100.00;101820.16;5070180;28;20028;-66
2021/12/15 11:43:44;;;;;;;79.80;42.08;;;;;;;3.27;100.00;101813.72;5070167;28;20056;-66
2021/12/15 11:46:30;;;;;;;79.45;41.95;;;;;;;3.36;100.00;101824.03;5071558;28;20020;-66
2021/12/15 11:49:02;;;;;;;76.07;39.80;;;;;;;3.51;100.00;101812.88;5071520;28;20028;-66
2021/12/15 11:51:39;;;;;;;76.78;38.90;;;;;;;3.54;100.00;101809.22;5071055;28;20438;-66
2021/12/15 11:54:15;;;;;;;76.47;39.20;;;;;;;3.70;100.00;101800.69;5071339;28;20028;-66
2021/12/15 11:56:40;;;;;;;72.18;37.55;;;;;;;3.87;100.00;101803.56;5071381;28;20031;-67
2021/12/15 11:59:15;;;;;;;68.55;38.25;;;;;;;3.87;100.00;101808.88;5071392;28;20111;-66
2021/12/15 12:01:44;;;;;;;71.50;38.70;;;;;;;3.87;100.00;101800.06;5070614;28;20013;-66
2021/12/15 12:04:32;;;;;;;72.18;39.15;;;;;;;3.96;100.00;101805.03;5070950;28;20043;-66
2021/12/15 12:07:29;;;;;;;74.22;38.45;;;;;;;4.12;100.00;101801.75;5066811;28;20093;-66
2021/12/15 12:10:03;;;;;;;70.75;39.03;;;;;;;4.24;100.00;101803.94;5071167;28;20025;-66
2021/12/15 12:12:34;;;;;;;;;;;;;;;4.34;100.00;101815.06;5071366;28;20103;-67
2021/12/15 12:15:01;;;;;;;66.70;37.00;;;;;;;4.37;100.00;101806.97;5069819;28;19916;-66
2021/12/15 12:17:34;;;;;;;62.25;34.78;;;;;;;4.49;100.00;101815.31;5066285;28;20028;-66
2021/12/15 12:20:09;;;;;;;68.05;37.38;;;;;;;4.63;99.66;101805.03;5051074;28;20021;-66
2021/12/15 12:22:36;;;;;;;68.53;36.33;;;;;;;4.65;99.53;101800.50;5050792;28;20028;-66